• Join FlightAware (Why Join?)
  • Login
  • US Flag 
07:51PM EDT


 

Airport Tracker/Info


-or-


 

Live Flight TrackerFlight Track Log ✈ EJA941 ✈ 22-Aug-2013 ✈ KACY - KBWI

Flight Track Log - Related Links

Times and Time Zones

All times are in EDT time to prevent confusion due to time zone crossing. See the EJA941 flight status page for this flight to view local times or setup timezone preferences in your user account.

Time Position Orientation Groundspeed Altitude Reporting Facility
EDT Latitude Longitude Course Direction KTS MPH feet Rate Location/Type
08:17AM 39.4294 -74.5169 270° West 220 253 3,000  Level Washington Center
08:18AM 39.3861 -74.5792 228° Southwest 258 297 5,800 1,800 Climbing Washington Center
08:19AM 39.3578 -74.6656 247° West 267 307 6,900 540 Climbing Washington Center
08:20AM 39.3272 -74.7544 246° West 274 315 6,900  Level Washington Center
08:21AM 39.3028 -74.8325 248° West 274 315 6,900 300 Level Washington Center
08:22AM 39.2739 -74.9186 247° West 274 315 7,500 480 Climbing Washington Center
08:23AM 39.2500 -75.0316 270° West  Level FlightAware Approximate
08:23AM 39.2558 -75.0153 256° West 274 315 7,900  Level Washington Center
08:24AM 39.2792 -75.1064 288° West 266 306 7,900  Level Washington Center
08:25AM 39.3003 -75.1972 287° West 261 300 7,900  Level Washington Center
08:26AM 39.2692 -75.2806 244° Southwest 249 287 7,900  Level Washington Center
08:27AM 39.2194 -75.3506 227° Southwest 249 287 7,900  Level Washington Center
08:28AM 39.1653 -75.4203 225° Southwest 262 302 7,900  Level Washington Center
08:29AM 39.1133 -75.4925 227° Southwest 272 313 7,900  Level Washington Center
08:30AM 39.0592 -75.5594 224° Southwest 272 313 7,900  Level Washington Center
08:31AM 39.0508 -75.6450 263° West 240 276 7,900  Level Washington Center
08:32AM 39.0611 -75.7386 278° West 242 278 7,900  Level Washington Center
08:33AM 39.0736 -75.8322 280° West 259 298 7,900  Level Washington Center
08:34AM 39.0775 -75.9286 273° West 270 311 7,900 -660 Level Washington Center
08:35AM 39.0625 -76.0194 258° West 270 311 6,600 -1,440 Descending Washington Center
08:36AM 39.0353 -76.0967 246° West 262 302 5,100 -1,320 Descending Washington Center
08:37AM 38.9931 -76.1792 237° Southwest 260 299 4,000 -600 Descending Washington Center
08:38AM 38.9469 -76.2481 229° Southwest 265 305 4,000  Level Washington Center
08:39AM 38.9008 -76.3117 227° Southwest 260 299 4,000  Level Washington Center
08:40AM 38.9167 -76.4000 283° West 252 290 4,000  Level Potomac TRACON
08:41AM 38.9667 -76.4667 314° West 235 270 4,000 -120 Level Potomac TRACON
08:42AM 39.0000 -76.5167 311° West 221 254 3,800 -660 Descending Potomac TRACON
08:43AM 39.0500 -76.5667 322° Northwest 212 244 2,700 -900 Descending Potomac TRACON
08:44AM 39.1000 -76.6000 333° Northwest 157 181 2,000 -600 Descending Potomac TRACON
08:45AM 39.1167 -76.6333 303° West 130 150 1,600  Descending Potomac TRACON
08:46AM 39.1000 -76.6667 237° Southwest 194 223 2,000 480 Climbing Potomac TRACON
08:47AM 39.0500 -76.6667 180° South 224 258 2,600 480 Climbing Potomac TRACON
08:48AM 38.9833 -76.6833 191° South 234 269 3,000 180 Climbing Potomac TRACON
08:49AM 38.9500 -76.6167 123° Southeast 229 264 3,000  Level Potomac TRACON
08:50AM 38.9667 -76.5667 67° East 194 223 3,000  Level Potomac TRACON
08:51AM 39.0167 -76.5500 15° North 178 205 3,000 -120 Level Potomac TRACON
08:52AM 39.0500 -76.5667 339° North 142 163 2,800 -480 Descending Potomac TRACON
08:53AM 39.0833 -76.5833 339° North 132 152 2,100 -780 Descending Potomac TRACON
08:54AM 39.1167 -76.6167 322° Northwest 125 144 1,400 -660 Descending Potomac TRACON
08:55AM 39.1333 -76.6333 322° Northwest 131 151 800 -600 Descending Potomac TRACON